createdAt,value
2018-03-22T09:13:35.296Z,24.53
2018-03-22T09:16:01.574Z,25.21
2018-03-22T09:18:28.475Z,25.81
2018-03-22T09:20:54.768Z,26.26
2018-03-22T09:23:21.730Z,26.61
2018-03-22T09:25:48.070Z,26.92
2018-03-22T09:28:14.395Z,27.12
2018-03-22T09:30:40.685Z,27.30
2018-03-22T09:33:06.978Z,27.45
2018-03-22T09:35:33.881Z,27.59
2018-03-22T09:38:00.181Z,27.70
2018-03-22T09:40:27.381Z,27.79
2018-03-22T09:42:53.635Z,27.88
2018-03-22T09:45:19.970Z,27.93
2018-03-22T09:47:46.270Z,27.91
2018-03-22T09:50:12.546Z,28.00
2018-03-22T09:52:38.821Z,28.03
2018-03-22T09:55:05.148Z,28.05
2018-03-22T09:57:31.950Z,28.09
2018-03-22T09:59:58.206Z,28.10
2018-03-22T10:02:24.679Z,28.10
2018-03-22T10:04:51.221Z,28.13
2018-03-22T10:07:18.356Z,28.11
2018-03-22T10:09:45.512Z,28.13
2018-03-22T10:12:12.049Z,28.14
2018-03-22T10:14:38.329Z,28.14
2018-03-22T10:17:04.591Z,28.14
2018-03-22T10:19:30.892Z,28.14
2018-03-22T10:21:57.832Z,28.12
2018-03-22T10:24:24.106Z,28.12
2018-03-22T10:26:50.647Z,28.12
2018-03-22T10:29:16.968Z,28.09
2018-03-22T10:31:43.513Z,28.07
2018-03-22T10:34:09.795Z,28.06
2018-03-22T10:36:36.721Z,28.07
2018-03-22T10:39:03.634Z,28.07
2018-03-22T10:41:29.899Z,28.06
2018-03-22T10:43:57.566Z,28.09
2018-03-22T10:46:23.888Z,28.07
2018-03-22T10:48:50.649Z,28.06
2018-03-22T10:51:17.183Z,28.05
2018-03-22T10:53:43.662Z,28.07
2018-03-22T10:56:09.956Z,28.12
2018-03-22T10:58:36.238Z,28.15
2018-03-22T11:01:08.579Z,28.16
2018-03-22T11:03:41.171Z,28.11
2018-03-22T11:06:07.747Z,28.08
2018-03-22T11:08:34.028Z,28.06
2018-03-22T11:11:00.316Z,28.11
2018-03-22T11:13:26.800Z,28.13
2018-03-22T11:15:53.108Z,28.13
2018-03-22T11:18:19.540Z,28.05
2018-03-22T11:20:45.852Z,28.07
2018-03-22T11:23:12.113Z,28.08
2018-03-22T11:25:38.398Z,28.06
2018-03-22T11:28:05.339Z,28.07
2018-03-22T11:30:31.939Z,28.06
2018-03-22T11:32:58.236Z,28.04
2018-03-22T11:35:25.471Z,27.99
